Time;durP1;ratioP1;P1;durP2;ratioP2;P2;SDS_P1;SDS_P2;PMS_P1;PMS_P2;Temp;Humidity;BMP_temperature;BMP_pressure;BME280_temperature;BME280_humidity;BME280_pressure;Samples;Min_cycle;Max_cycle;Signal;HPM_P1;HPM_P2
2021/09/18 00:02:01;;;;;;;7.32;1.80;;;;;;;28.02;34.74;96592.22;4975785;28;20664;-32
2021/09/18 00:04:27;;;;;;;4.82;1.80;;;;;;;28.03;34.81;96599.16;4982721;28;20033;-32
2021/09/18 00:06:52;;;;;;;3.05;1.90;;;;;;;28.04;34.73;96597.38;4978411;28;20022;-30
2021/09/18 00:09:17;;;;;;;3.20;1.77;;;;;;;28.04;34.63;96598.22;4978954;28;20082;-30
2021/09/18 00:11:43;;;;;;;3.20;1.60;;;;;;;28.04;34.87;96592.13;4979603;28;20034;-29
2021/09/18 00:14:08;;;;;;;4.35;1.88;;;;;;;28.03;34.53;96599.16;4980911;28;20042;-32
2021/09/18 00:16:34;;;;;;;2.95;1.88;;;;;;;28.03;34.78;96601.78;4980201;28;20022;-32
2021/09/18 00:18:59;;;;;;;1.88;1.50;;;;;;;28.04;34.77;96594.75;4979248;28;20525;-31
2021/09/18 00:21:24;;;;;;;5.15;1.98;;;;;;;28.04;34.62;96592.13;4974800;28;20568;-32
2021/09/18 00:23:50;;;;;;;3.20;1.77;;;;;;;28.05;34.72;96591.16;4983629;28;20038;-30
2021/09/18 00:26:15;;;;;;;2.47;1.80;;;;;;;28.04;34.83;96595.56;4980795;28;20026;-34
2021/09/18 00:28:41;;;;;;;3.15;1.60;;;;;;;28.04;34.83;96592.94;4982503;28;20019;-31
2021/09/18 00:31:06;;;;;;;2.72;1.75;;;;;;;28.04;34.86;96594.75;4976139;28;20038;-34
2021/09/18 00:33:31;;;;;;;2.88;1.70;;;;;;;28.05;34.89;96599.06;4979652;28;20031;-32
2021/09/18 00:35:57;;;;;;;3.47;1.77;;;;;;;28.04;34.78;96589.47;4981760;28;20118;-32
2021/09/18 00:38:22;;;;;;;2.92;1.70;;;;;;;28.04;34.84;96594.75;4978185;28;20030;-30
2021/09/18 00:40:48;;;;;;;4.38;1.70;;;;;;;28.03;35.03;96593.03;4985719;28;20096;-31
2021/09/18 00:43:13;;;;;;;2.55;1.70;;;;;;;28.03;34.87;96588.63;4983902;28;20030;-31
2021/09/18 00:45:38;;;;;;;2.60;1.60;;;;;;;28.03;34.86;96587.75;4982636;28;20030;-34
2021/09/18 00:48:04;;;;;;;3.75;1.45;;;;;;;28.04;34.90;96597.38;4976525;28;20703;-31
2021/09/18 00:50:29;;;;;;;2.28;1.48;;;;;;;28.04;34.79;96595.56;4979300;28;20496;-29
2021/09/18 00:52:55;;;;;;;3.42;1.70;;;;;;;28.04;34.89;96592.13;4974328;28;20030;-30
2021/09/18 00:55:20;;;;;;;2.67;1.60;;;;;;;28.03;34.87;96586.00;4974388;28;20029;-29
2021/09/18 00:57:46;;;;;;;3.17;1.65;;;;;;;28.03;34.92;96591.25;4976083;28;20663;-31
2021/09/18 01:00:13;;;;;;;2.92;1.80;;;;;;;28.03;34.95;96588.63;4971828;28;20054;-31
2021/09/18 01:02:39;;;;;;;2.60;1.50;;;;;;;28.03;34.78;96590.41;4977014;28;20108;-33
2021/09/18 01:05:05;;;;;;;5.50;1.58;;;;;;;28.02;34.77;96586.94;4982021;28;20089;-32
2021/09/18 01:07:30;;;;;;;5.35;1.60;;;;;;;28.02;34.85;96591.34;4983858;28;20029;-30
2021/09/18 01:09:56;;;;;;;3.75;1.80;;;;;;;28.02;34.87;96592.22;4978775;28;20374;-29
2021/09/18 01:12:21;;;;;;;2.17;1.58;;;;;;;28.04;34.96;96600.00;4961571;28;20041;-30
2021/09/18 01:14:47;;;;;;;3.70;1.35;;;;;;;28.03;35.01;96588.63;4976026;28;20026;-30
2021/09/18 01:17:12;;;;;;;3.15;1.52;;;;;;;28.03;34.77;96593.03;4984886;28;20034;-32
2021/09/18 01:19:38;;;;;;;1.42;1.33;;;;;;;28.02;34.90;96586.09;4982726;28;20034;-29
2021/09/18 01:22:04;;;;;;;3.17;1.63;;;;;;;28.02;34.75;96591.34;4983436;28;20035;-32
2021/09/18 01:24:29;;;;;;;3.10;1.77;;;;;;;28.02;34.71;96592.22;4977201;28;20030;-30
2021/09/18 01:26:55;;;;;;;2.45;1.50;;;;;;;28.02;34.83;96586.09;4979170;28;21600;-30
2021/09/18 01:29:20;;;;;;;2.60;1.30;;;;;;;28.02;34.87;96580.81;4979390;28;20615;-32
2021/09/18 01:31:46;;;;;;;2.45;1.70;;;;;;;28.01;34.82;96587.91;4983694;28;20045;-30
2021/09/18 01:34:19;;;;;;;2.88;1.48;;;;;;;28.02;34.85;96586.09;4978925;28;20113;-30
2021/09/18 01:36:47;;;;;;;1.60;1.23;;;;;;;28.02;34.67;96580.81;4975389;28;20605;-31
2021/09/18 01:39:13;;;;;;;2.50;1.50;;;;;;;28.01;34.84;96579.13;4979520;28;20124;-33
2021/09/18 01:41:39;;;;;;;3.00;1.27;;;;;;;28.01;34.75;96584.41;4979824;28;20026;-31
2021/09/18 01:44:04;;;;;;;2.67;1.58;;;;;;;28.01;34.86;96579.13;4974672;28;20042;-30
2021/09/18 01:46:30;;;;;;;2.47;1.42;;;;;;;28.01;34.94;96579.13;4979061;28;20030;-32
2021/09/18 01:48:55;;;;;;;1.58;1.33;;;;;;;28.01;34.76;96584.41;4980321;28;20084;-34
2021/09/18 01:51:21;;;;;;;1.63;1.40;;;;;;;28.01;34.78;96584.41;4979340;28;20556;-30
2021/09/18 01:53:46;;;;;;;1.80;1.50;;;;;;;28.00;34.78;96577.44;4980545;28;20027;-30
2021/09/18 01:56:12;;;;;;;3.40;1.70;;;;;;;28.01;34.67;96584.41;4978659;28;20437;-31
2021/09/18 01:58:37;;;;;;;2.38;1.77;;;;;;;28.02;34.67;96583.44;4980152;28;23008;-29
2021/09/18 02:01:03;;;;;;;3.55;1.50;;;;;;;28.00;34.70;96574.81;4982406;28;20034;-28
2021/09/18 02:03:30;;;;;;;4.32;1.40;;;;;;;28.00;34.73;96582.72;4975957;28;20113;-35
2021/09/18 02:05:55;;;;;;;2.05;1.38;;;;;;;28.00;34.70;96577.44;4979932;28;20030;-33
2021/09/18 02:08:21;;;;;;;4.47;1.65;;;;;;;28.01;34.75;96581.78;4976324;28;20070;-31
2021/09/18 02:10:47;;;;;;;1.88;1.60;;;;;;;28.00;34.75;96580.09;4974643;28;20026;-30
2021/09/18 02:13:12;;;;;;;2.08;1.60;;;;;;;27.99;34.62;96576.59;4983025;28;20026;-30
2021/09/18 02:15:38;;;;;;;1.90;1.58;;;;;;;27.99;34.90;96581.88;4977584;28;20165;-31
2021/09/18 02:18:04;;;;;;;2.35;1.60;;;;;;;27.99;34.72;96573.97;4979168;28;20052;-31
2021/09/18 02:20:30;;;;;;;1.83;1.42;;;;;;;27.98;34.79;96574.06;4977740;28;20038;-29
2021/09/18 02:22:56;;;;;;;3.03;1.23;;;;;;;27.98;34.71;96571.44;4980984;28;20041;-30
2021/09/18 02:25:22;;;;;;;2.47;1.58;;;;;;;27.97;34.76;96565.34;4973397;28;20122;-29
2021/09/18 02:27:47;;;;;;;1.92;1.58;;;;;;;27.97;34.41;96570.59;4977665;28;20033;-30
2021/09/18 02:30:16;;;;;;;2.97;1.48;;;;;;;27.98;34.72;96574.06;4979407;28;20495;-32
2021/09/18 02:32:41;;;;;;;1.77;1.50;;;;;;;27.99;34.62;96567.88;4981707;28;20080;-31
2021/09/18 02:35:08;;;;;;;3.53;1.50;;;;;;;27.98;34.69;96563.53;4976361;28;20033;-30
2021/09/18 02:37:34;;;;;;;2.90;1.40;;;;;;;27.97;34.64;96575.88;4979225;28;20026;-33
2021/09/18 02:39:59;;;;;;;2.10;1.38;;;;;;;27.97;34.84;96572.38;4963201;28;20031;-35
2021/09/18 02:42:25;;;;;;;2.03;1.58;;;;;;;27.97;34.75;96573.22;4977658;28;20092;-30
2021/09/18 02:44:50;;;;;;;1.50;1.20;;;;;;;27.97;34.85;96572.38;4973384;28;20157;-31
2021/09/18 02:47:15;;;;;;;1.70;1.52;;;;;;;27.97;34.80;96564.47;4982434;28;20034;-30
2021/09/18 02:49:41;;;;;;;1.70;1.40;;;;;;;27.97;34.72;96567.09;4977775;28;20030;-30
2021/09/18 02:52:06;;;;;;;1.33;1.23;;;;;;;27.96;34.70;96570.69;4980057;28;20026;-31
2021/09/18 02:54:32;;;;;;;1.63;1.30;;;;;;;27.93;34.91;96563.84;4986290;28;20037;-31
2021/09/18 02:56:57;;;;;;;2.05;1.70;;;;;;;27.96;34.76;96568.06;4978479;28;20057;-31
2021/09/18 02:59:22;;;;;;;1.77;1.38;;;;;;;27.96;34.75;96565.44;4978942;28;20041;-29
2021/09/18 03:01:48;;;;;;;1.35;1.25;;;;;;;27.95;34.73;96566.38;4979696;28;20018;-35
2021/09/18 03:04:13;;;;;;;2.85;1.20;;;;;;;27.95;34.83;96569.84;4974024;28;20041;-30
2021/09/18 03:06:39;;;;;;;1.90;1.17;;;;;;;27.95;34.64;96566.38;4978400;28;20037;-31
2021/09/18 03:09:04;;;;;;;1.63;1.35;;;;;;;27.95;34.67;96563.75;4986331;28;20026;-32
2021/09/18 03:11:29;;;;;;;2.20;1.30;;;;;;;27.95;34.80;96563.75;4982815;28;20038;-30
2021/09/18 03:13:55;;;;;;;3.40;1.60;;;;;;;27.94;34.74;96562.88;4984746;28;20041;-29
2021/09/18 03:16:20;;;;;;;2.78;1.60;;;;;;;27.94;34.82;96559.41;4986181;28;20045;-30
2021/09/18 03:18:46;;;;;;;2.25;1.30;;;;;;;27.90;34.69;96545.59;4984123;28;20164;-32
2021/09/18 03:21:11;;;;;;;1.48;1.38;;;;;;;27.92;34.83;96560.34;4982072;28;20030;-31
2021/09/18 03:23:36;;;;;;;2.58;1.50;;;;;;;27.92;34.82;96560.34;4978676;28;20034;-31
2021/09/18 03:26:02;;;;;;;3.42;1.20;;;;;;;27.92;34.83;96560.34;4983118;28;20045;-30
2021/09/18 03:28:27;;;;;;;1.50;1.38;;;;;;;27.92;34.67;96560.34;4979728;28;20030;-31
2021/09/18 03:30:53;;;;;;;1.85;1.25;;;;;;;27.92;34.58;96563.00;4984581;28;20038;-33
2021/09/18 03:33:18;;;;;;;1.50;1.23;;;;;;;27.91;34.66;96558.66;4984487;28;20096;-31
2021/09/18 03:35:44;;;;;;;1.73;1.42;;;;;;;27.92;34.64;96562.16;4982257;28;20038;-30
2021/09/18 03:38:10;;;;;;;2.65;1.60;;;;;;;27.91;34.77;96563.94;4981676;28;20034;-31
2021/09/18 03:40:35;;;;;;;2.75;1.50;;;;;;;27.91;34.78;96560.44;4992950;28;20063;-31
2021/09/18 03:43:01;;;;;;;1.90;1.42;;;;;;;27.91;34.60;96561.31;4979137;28;20056;-30
2021/09/18 03:45:26;;;;;;;2.22;1.30;;;;;;;27.90;34.72;96557.00;4969569;28;20038;-31
2021/09/18 03:47:51;;;;;;;2.20;1.33;;;;;;;27.90;34.71;96557.00;4972250;28;20963;-29
2021/09/18 03:50:17;;;;;;;2.05;1.35;;;;;;;27.90;34.78;96551.72;4979923;28;20555;-31
2021/09/18 03:52:42;;;;;;;2.80;1.40;;;;;;;27.90;34.77;96545.59;4986697;28;20038;-32
2021/09/18 03:55:08;;;;;;;2.05;1.20;;;;;;;27.88;34.84;96543.06;4979767;28;20026;-30
2021/09/18 03:57:34;;;;;;;2.25;1.13;;;;;;;27.90;34.78;96541.19;4980871;28;21871;-31
2021/09/18 03:59:59;;;;;;;1.63;1.33;;;;;;;27.89;34.64;96542.13;4988087;28;20033;-32
2021/09/18 04:02:24;;;;;;;4.15;1.45;;;;;;;27.89;34.81;96542.13;4984440;28;20030;-30
2021/09/18 04:04:50;;;;;;;6.30;1.38;;;;;;;27.90;34.76;96540.34;4980122;28;20037;-38
2021/09/18 04:07:15;;;;;;;2.17;1.58;;;;;;;27.89;34.81;96550.00;4981616;28;20401;-32
2021/09/18 04:09:40;;;;;;;1.98;1.20;;;;;;;27.88;34.70;96553.59;4980818;28;20038;-29
2021/09/18 04:12:06;;;;;;;2.95;1.10;;;;;;;27.89;34.58;96554.44;4980381;28;20034;-31
2021/09/18 04:14:31;;;;;;;1.83;1.25;;;;;;;27.87;34.74;96551.91;4985271;28;20503;-33
2021/09/18 04:16:57;;;;;;;1.40;1.30;;;;;;;27.88;34.79;96550.13;4984898;28;20034;-33
2021/09/18 04:19:22;;;;;;;2.13;1.10;;;;;;;27.87;34.65;96554.56;4976143;28;20031;-32
2021/09/18 04:21:48;;;;;;;1.35;1.20;;;;;;;27.87;34.58;96551.91;4980150;28;20034;-30
2021/09/18 04:24:13;;;;;;;4.75;1.10;;;;;;;27.88;34.67;96552.78;4980316;28;20187;-31
2021/09/18 04:26:38;;;;;;;1.13;0.98;;;;;;;27.86;34.57;96554.66;4983282;28;20025;-29
2021/09/18 04:29:04;;;;;;;1.50;1.02;;;;;;;27.86;34.68;96560.78;4983305;28;20553;-31
2021/09/18 04:31:29;;;;;;;2.72;1.30;;;;;;;27.87;34.69;96564.22;4974248;28;20771;-28
2021/09/18 04:33:55;;;;;;;5.43;1.60;;;;;;;27.86;34.79;96558.13;4980796;28;20038;-32
2021/09/18 04:36:21;;;;;;;1.90;1.00;;;;;;;27.84;34.72;96562.63;4978279;28;20030;-28
2021/09/18 04:38:46;;;;;;;4.30;1.50;;;;;;;27.86;34.76;96565.19;4981987;28;20038;-30
2021/09/18 04:41:12;;;;;;;1.65;1.10;;;;;;;27.86;34.80;96557.28;4974154;28;20026;-31
2021/09/18 04:43:37;;;;;;;1.55;1.35;;;;;;;27.85;34.74;96564.34;4980368;28;20041;-30
2021/09/18 04:46:02;;;;;;;1.75;1.13;;;;;;;27.85;34.81;96574.88;4979160;28;21956;-30
2021/09/18 04:48:28;;;;;;;3.75;1.10;;;;;;;27.85;34.73;96574.03;4984651;28;20026;-30
2021/09/18 04:50:53;;;;;;;1.20;1.10;;;;;;;27.84;34.89;96577.63;4975515;28;20030;-32
2021/09/18 04:53:19;;;;;;;2.65;1.23;;;;;;;27.85;34.67;96574.03;4981519;28;20038;-30
2021/09/18 04:55:44;;;;;;;2.58;1.13;;;;;;;27.84;34.70;96583.72;4982693;28;20026;-31
2021/09/18 04:58:10;;;;;;;1.67;1.25;;;;;;;27.84;34.80;96580.25;4978597;28;20030;-31
2021/09/18 05:00:35;;;;;;;1.63;1.10;;;;;;;27.84;34.62;96582.88;4974695;28;20042;-32
2021/09/18 05:03:01;;;;;;;2.05;1.20;;;;;;;27.84;34.60;96583.72;4976218;28;20055;-31
2021/09/18 05:05:26;;;;;;;1.10;1.00;;;;;;;27.84;34.62;96582.88;4983346;28;20460;-33
2021/09/18 05:07:51;;;;;;;2.05;1.10;;;;;;;27.83;34.69;96583.81;4984814;28;20045;-30
2021/09/18 05:10:17;;;;;;;1.42;1.08;;;;;;;27.83;34.60;96587.28;4984731;28;20176;-30
2021/09/18 05:12:42;;;;;;;1.08;0.95;;;;;;;27.82;34.70;96588.25;4977904;28;20034;-29
2021/09/18 05:15:08;;;;;;;1.20;1.10;;;;;;;27.82;34.68;96590.88;4984868;28;20036;-32
2021/09/18 05:17:33;;;;;;;1.50;1.15;;;;;;;27.82;34.76;96590.03;4960529;28;20489;-36
2021/09/18 05:19:59;;;;;;;2.83;1.20;;;;;;;27.82;34.72;96590.03;4979240;28;20041;-31
2021/09/18 05:22:24;;;;;;;1.52;1.40;;;;;;;27.82;34.61;96590.03;4980712;28;20037;-32
2021/09/18 05:24:51;;;;;;;1.42;1.15;;;;;;;27.81;34.62;96594.47;4980556;28;20030;-30
2021/09/18 05:27:16;;;;;;;1.50;1.02;;;;;;;27.80;34.58;96584.84;4978330;28;20029;-29
2021/09/18 05:29:44;;;;;;;5.15;1.10;;;;;;;27.81;34.54;96589.19;4975686;28;20579;-36
2021/09/18 05:32:12;;;;;;;5.45;1.45;;;;;;;27.81;34.60;96593.59;4974728;28;20030;-30
2021/09/18 05:34:38;;;;;;;1.60;1.30;;;;;;;27.81;34.73;96593.59;4981631;28;20149;-31
2021/09/18 05:37:04;;;;;;;6.68;1.50;;;;;;;27.81;34.68;96598.88;4976460;28;20108;-31
2021/09/18 05:39:29;;;;;;;1.95;1.40;;;;;;;27.80;34.79;96598.00;4980289;28;20493;-32
2021/09/18 05:41:54;;;;;;;3.25;1.20;;;;;;;27.80;34.80;96598.00;4979110;28;20030;-29
2021/09/18 05:44:20;;;;;;;4.53;1.25;;;;;;;27.81;34.73;96605.00;4982951;28;20103;-34
2021/09/18 05:46:46;;;;;;;1.80;1.20;;;;;;;27.81;34.64;96599.72;4977205;28;20038;-30
2021/09/18 05:49:11;;;;;;;3.05;1.20;;;;;;;27.80;34.65;96595.38;4961495;28;20101;-35
2021/09/18 05:51:36;;;;;;;1.67;1.30;;;;;;;27.82;34.74;96608.44;4982551;28;20070;-34
2021/09/18 05:54:02;;;;;;;1.25;1.00;;;;;;;27.80;34.63;96603.28;4981179;28;20593;-30
2021/09/18 05:56:27;;;;;;;2.20;1.30;;;;;;;27.80;35.01;96598.00;4982106;28;20099;-30
2021/09/18 05:58:53;;;;;;;4.45;1.05;;;;;;;27.81;34.68;96605.00;4979579;28;20030;-32
2021/09/18 06:01:18;;;;;;;3.28;1.23;;;;;;;27.80;34.81;96603.28;4975483;28;20026;-32
2021/09/18 06:03:43;;;;;;;1.13;0.90;;;;;;;27.80;34.82;96603.28;4974467;28;20038;-30
2021/09/18 06:06:09;;;;;;;5.68;1.30;;;;;;;27.81;34.83;96610.25;4981192;28;20037;-30
2021/09/18 06:08:34;;;;;;;3.08;1.10;;;;;;;27.82;34.81;96611.09;4974086;28;20042;-31
2021/09/18 06:11:00;;;;;;;2.33;1.23;;;;;;;27.82;35.05;96611.94;4978003;28;20034;-32
2021/09/18 06:13:25;;;;;;;2.17;1.05;;;;;;;27.82;34.84;96609.31;4973679;28;20073;-31
2021/09/18 06:15:50;;;;;;;1.63;1.08;;;;;;;27.83;34.97;96613.63;4979294;28;20433;-30
2021/09/18 06:18:16;;;;;;;1.58;1.25;;;;;;;27.82;34.78;96611.94;4967221;28;20045;-29
2021/09/18 06:20:41;;;;;;;1.35;1.05;;;;;;;27.81;35.03;96610.25;4974404;28;20531;-29
2021/09/18 06:23:07;;;;;;;5.50;1.13;;;;;;;27.82;34.96;96611.94;4978092;28;20724;-30
2021/09/18 06:25:32;;;;;;;2.10;1.05;;;;;;;27.79;34.92;96617.41;4976129;28;20037;-30
2021/09/18 06:27:57;;;;;;;2.30;1.30;;;;;;;27.82;34.87;96621.63;4970129;28;20042;-31
2021/09/18 06:30:23;;;;;;;2.97;1.10;;;;;;;27.82;34.83;96611.09;4979789;28;20026;-31
2021/09/18 06:32:48;;;;;;;2.13;1.33;;;;;;;27.81;34.80;96618.16;4973134;28;20026;-30
2021/09/18 06:35:14;;;;;;;4.22;2.03;;;;;;;27.79;32.50;96622.66;4973052;28;20580;-30
2021/09/18 06:37:41;;;;;;;3.58;2.22;;;;;;;27.71;31.44;96620.53;4973745;28;20049;-31
2021/09/18 06:40:07;;;;;;;9.02;2.45;;;;;;;27.62;30.86;96616.69;4971605;28;20706;-34
2021/09/18 06:42:32;;;;;;;7.10;2.63;;;;;;;27.57;31.76;96620.53;4975592;28;20171;-30
2021/09/18 06:44:57;;;;;;;10.95;3.20;;;;;;;27.53;32.10;96617.22;4974222;28;20038;-43
2021/09/18 06:47:23;;;;;;;7.70;3.00;;;;;;;27.51;32.48;96608.59;4978384;28;20026;-30
2021/09/18 06:49:48;;;;;;;9.88;2.50;;;;;;;27.51;32.72;96619.13;4979604;28;20034;-29
2021/09/18 06:52:14;;;;;;;6.40;2.65;;;;;;;27.53;32.97;96619.88;4979565;28;20484;-30
2021/09/18 06:54:41;;;;;;;5.28;2.22;;;;;;;27.52;33.50;96612.91;4974973;28;20046;-31
2021/09/18 06:57:11;;;;;;;8.20;2.75;;;;;;;27.55;33.92;96610.09;4972635;28;20065;-33
2021/09/18 06:59:37;;;;;;;7.00;2.30;;;;;;;27.57;33.91;96612.63;4986428;28;20103;-31
2021/09/18 07:02:02;;;;;;;16.65;2.60;;;;;;;27.57;33.91;96618.72;4979083;28;20069;-30
2021/09/18 07:04:27;;;;;;;6.75;2.50;;;;;;;27.57;33.46;96613.47;4979286;28;20136;-28
2021/09/18 07:06:53;;;;;;;4.50;2.53;;;;;;;27.58;33.04;96615.16;4976132;28;20049;-30
2021/09/18 07:09:18;;;;;;;10.82;2.85;;;;;;;27.58;32.88;96619.59;4978935;28;20175;-30
2021/09/18 07:11:44;;;;;;;8.35;3.30;;;;;;;27.58;32.74;96624.84;4979564;28;20030;-33
2021/09/18 07:14:09;;;;;;;5.75;2.65;;;;;;;27.57;32.73;96624.00;4981179;28;20030;-32
2021/09/18 07:16:34;;;;;;;6.95;2.80;;;;;;;27.56;32.60;96622.31;4977720;28;20026;-31
2021/09/18 07:19:00;;;;;;;7.30;2.75;;;;;;;27.56;32.81;96622.31;4979136;28;20056;-29
2021/09/18 07:21:25;;;;;;;8.10;2.80;;;;;;;27.56;32.76;96617.03;4980018;28;20030;-31
2021/09/18 07:23:51;;;;;;;8.30;2.83;;;;;;;27.57;33.04;96624.00;4982264;28;20037;-28
2021/09/18 07:26:16;;;;;;;5.65;3.05;;;;;;;27.57;32.76;96617.91;4982203;28;20485;-27
2021/09/18 07:28:41;;;;;;;7.55;3.10;;;;;;;27.58;32.94;96625.69;4976310;28;20042;-30
2021/09/18 07:31:07;;;;;;;6.70;2.58;;;;;;;27.58;32.92;96630.94;4976706;28;20030;-31
2021/09/18 07:33:32;;;;;;;4.90;2.58;;;;;;;27.58;32.64;96630.94;4976277;28;20056;-30
2021/09/18 07:35:58;;;;;;;5.72;2.20;;;;;;;27.59;32.58;96627.38;4983373;28;20093;-31
2021/09/18 07:38:23;;;;;;;3.90;2.28;;;;;;;27.59;32.77;96624.75;4977135;28;20112;-29
2021/09/18 07:40:53;;;;;;;5.93;2.80;;;;;;;27.59;32.75;96619.50;4978933;28;20026;-29
2021/09/18 07:43:19;;;;;;;5.20;2.67;;;;;;;27.60;32.58;96623.81;4978417;28;20030;-34
2021/09/18 07:45:44;;;;;;;8.27;3.10;;;;;;;27.61;32.57;96628.16;4977150;28;20092;-30
2021/09/18 07:48:10;;;;;;;4.50;2.70;;;;;;;27.62;32.60;96631.66;4979548;28;20097;-34
2021/09/18 07:50:35;;;;;;;7.60;2.92;;;;;;;27.62;32.89;96624.56;4977785;28;20030;-31
2021/09/18 07:53:00;;;;;;;4.72;2.80;;;;;;;27.63;33.08;96625.44;4977642;28;20042;-29
2021/09/18 07:55:27;;;;;;;3.92;2.53;;;;;;;27.64;32.99;96622.72;4978997;28;20045;-30
2021/09/18 07:57:53;;;;;;;5.10;2.70;;;;;;;27.65;32.83;96626.19;4980400;28;20420;-30
2021/09/18 08:00:18;;;;;;;6.43;2.70;;;;;;;27.65;32.81;96621.75;4980202;28;20042;-30
2021/09/18 08:02:43;;;;;;;4.88;2.80;;;;;;;27.67;32.95;96618.19;4981566;28;20045;-32
2021/09/18 08:05:09;;;;;;;4.45;2.25;;;;;;;27.69;33.03;96626.84;4979033;28;20089;-31
2021/09/18 08:07:34;;;;;;;4.82;2.40;;;;;;;27.70;33.04;96628.53;4978758;28;20236;-33
2021/09/18 08:10:00;;;;;;;4.55;2.60;;;;;;;27.71;33.05;96635.47;4978783;28;20026;-33
2021/09/18 08:12:26;;;;;;;3.83;2.38;;;;;;;27.72;33.20;96631.91;4980243;28;20125;-30
2021/09/18 08:14:52;;;;;;;3.85;2.40;;;;;;;27.73;33.09;96633.59;4977713;28;20034;-30
2021/09/18 08:17:17;;;;;;;6.97;2.70;;;;;;;27.75;32.94;96636.97;4977930;28;20684;-33
2021/09/18 08:19:43;;;;;;;6.25;3.50;;;;;;;27.74;32.96;96635.28;4981905;28;20079;-30
2021/09/18 08:22:08;;;;;;;5.68;3.85;;;;;;;27.74;32.53;96630.00;4983254;28;20048;-31
2021/09/18 08:24:34;;;;;;;6.82;3.95;;;;;;;27.72;31.85;96631.91;4987376;28;20078;-30
2021/09/18 08:26:59;;;;;;;12.77;3.92;;;;;;;27.69;31.80;96626.84;4985603;28;20065;-31
2021/09/18 08:29:25;;;;;;;8.10;4.10;;;;;;;27.62;31.62;96624.56;4987939;28;20024;-31
2021/09/18 08:31:50;;;;;;;7.18;3.97;;;;;;;27.58;31.63;96636.19;4990868;28;20516;-31
2021/09/18 08:34:15;;;;;;;5.03;3.45;;;;;;;27.53;31.39;96628.63;4986324;28;20061;-33
2021/09/18 08:36:41;;;;;;;5.72;4.20;;;;;;;27.49;31.37;96626.25;4988629;28;20026;-31
2021/09/18 08:39:07;;;;;;;7.22;4.20;;;;;;;27.44;31.02;96634.47;4989104;28;20037;-30
2021/09/18 08:41:32;;;;;;;5.68;3.85;;;;;;;27.38;31.25;96627.78;4990116;28;20022;-31
2021/09/18 08:43:58;;;;;;;5.50;3.80;;;;;;;27.34;31.36;96631.53;4989764;28;20049;-29
2021/09/18 08:46:24;;;;;;;5.15;3.63;;;;;;;27.31;31.52;96638.78;4990209;28;20029;-35
2021/09/18 08:48:50;;;;;;;6.35;3.00;;;;;;;27.27;31.81;96632.88;4985269;28;20026;-30
2021/09/18 08:51:15;;;;;;;8.32;2.70;;;;;;;27.27;32.07;96638.16;4981619;28;20033;-33
2021/09/18 08:53:40;;;;;;;6.40;3.10;;;;;;;27.29;32.11;96638.03;4978755;28;20489;-29
2021/09/18 08:56:06;;;;;;;7.72;3.15;;;;;;;27.29;32.16;96641.53;4984403;28;20022;-32
2021/09/18 08:58:31;;;;;;;5.50;2.60;;;;;;;27.33;32.43;96642.16;4985688;28;20048;-30
2021/09/18 09:00:57;;;;;;;8.88;3.42;;;;;;;27.35;32.62;96643.75;4976664;28;20532;-30
2021/09/18 09:03:31;;;;;;;7.55;3.60;;;;;;;27.37;32.50;96638.41;4978206;28;20062;-29
2021/09/18 09:06:15;;;;;;;4.85;2.80;;;;;;;27.39;32.43;96637.38;4980084;28;20548;-31
2021/09/18 09:08:43;;;;;;;6.60;2.40;;;;;;;27.42;32.44;96638.13;4962099;28;20417;-30
2021/09/18 09:11:16;;;;;;;9.48;3.10;;;;;;;27.44;32.75;96638.88;4949101;28;20030;-28
2021/09/18 09:14:04;;;;;;;4.95;3.22;;;;;;;27.46;32.60;96637.00;4967559;28;20108;-29
2021/09/18 09:16:32;;;;;;;5.50;2.75;;;;;;;27.48;32.82;96635.09;4968352;28;20041;-30
2021/09/18 09:18:58;;;;;;;7.63;3.38;;;;;;;27.50;32.91;96633.25;4965618;28;20034;-34
2021/09/18 09:21:23;;;;;;;11.35;3.22;;;;;;;27.50;33.03;96631.44;4963345;28;20034;-31
2021/09/18 09:24:11;;;;;;;12.38;4.10;;;;;;;27.53;32.99;96630.38;4967057;28;20037;-27
2021/09/18 09:26:38;;;;;;;15.55;4.82;;;;;;;27.55;33.15;96625.03;4965348;28;20038;-28
2021/09/18 09:29:03;;;;;;;15.25;4.93;;;;;;;27.56;33.36;96627.56;4958608;28;20115;-29
2021/09/18 09:31:29;;;;;;;15.70;5.47;;;;;;;27.59;33.32;96627.38;4968149;28;20030;-30
2021/09/18 09:34:16;;;;;;;19.08;6.20;;;;;;;27.61;33.41;96624.69;4983529;28;20033;-32
2021/09/18 09:36:42;;;;;;;23.23;6.22;;;;;;;27.62;33.48;96619.31;4984258;28;20014;-31
2021/09/18 09:39:10;;;;;;;21.55;6.80;;;;;;;27.62;33.56;96616.69;4987133;28;20484;-30
2021/09/18 09:41:48;;;;;;;22.20;6.30;;;;;;;27.67;33.50;96621.66;4985144;28;20037;-34
2021/09/18 09:44:16;;;;;;;21.00;6.40;;;;;;;27.67;33.64;96618.19;4967067;28;20034;-31
2021/09/18 09:46:42;;;;;;;19.77;6.38;;;;;;;27.69;33.64;96621.56;4970524;28;20632;-31
2021/09/18 09:49:14;;;;;;;17.05;5.90;;;;;;;27.70;33.84;96618.00;4960387;28;20026;-29
2021/09/18 09:51:41;;;;;;;17.58;5.40;;;;;;;27.73;33.82;96621.25;4980518;28;20042;-31
2021/09/18 09:54:17;;;;;;;25.42;6.13;;;;;;;27.73;33.95;96617.81;4988875;28;20113;-30
2021/09/18 09:56:42;;;;;;;14.75;5.32;;;;;;;27.75;33.86;96610.63;4998211;28;20120;-29
2021/09/18 09:59:08;;;;;;;15.70;5.55;;;;;;;27.75;34.03;96615.91;4980127;28;20030;-33
2021/09/18 10:01:33;;;;;;;14.02;5.32;;;;;;;27.77;33.92;96614.84;4957741;28;20034;-31
2021/09/18 10:03:58;;;;;;;13.38;5.35;;;;;;;27.77;34.07;96617.50;4980257;28;20318;-30
2021/09/18 10:06:24;;;;;;;12.15;5.10;;;;;;;27.80;33.97;96618.25;4979230;28;20033;-29
2021/09/18 10:08:50;;;;;;;17.83;5.07;;;;;;;27.81;34.16;96610.25;4968568;28;20218;-31
2021/09/18 10:11:16;;;;;;;11.60;4.38;;;;;;;27.82;34.20;96617.22;4967265;28;20125;-29
2021/09/18 10:13:42;;;;;;;10.65;4.70;;;;;;;27.83;34.20;96608.34;4961512;28;20026;-28
2021/09/18 10:16:07;;;;;;;10.90;4.63;;;;;;;27.83;34.18;96613.63;4957417;28;20499;-31
2021/09/18 10:18:34;;;;;;;12.82;4.47;;;;;;;27.84;34.28;96610.03;4962007;28;20036;-30
2021/09/18 10:23:25;;;;;;;9.50;3.97;;;;;;;27.87;34.38;96609.84;4976681;28;20096;-30
2021/09/18 10:25:56;;;;;;;10.90;3.88;;;;;;;27.88;34.37;96606.25;4972990;28;20038;-32
2021/09/18 10:28:26;;;;;;;10.00;3.90;;;;;;;27.87;34.34;96607.22;4975225;28;20045;-30
2021/09/18 10:30:53;;;;;;;10.07;4.63;;;;;;;27.90;34.48;96617.56;4977967;28;20034;-30
2021/09/18 10:33:28;;;;;;;11.52;3.80;;;;;;;27.90;34.40;96614.94;4988816;28;20033;-31
2021/09/18 10:35:55;;;;;;;8.65;3.95;;;;;;;27.90;34.48;96604.41;4983741;28;20643;-28
2021/09/18 10:38:23;;;;;;;8.70;3.85;;;;;;;27.92;34.38;96602.50;4980911;28;20044;-28
2021/09/18 10:40:56;;;;;;;9.68;3.70;;;;;;;27.92;34.61;96601.66;4983965;28;20133;-29
2021/09/18 10:43:26;;;;;;;10.52;3.90;;;;;;;27.93;34.50;96600.72;4978655;28;20026;-31
2021/09/18 10:45:52;;;;;;;10.88;3.92;;;;;;;27.92;34.46;96602.50;4977384;28;20524;-29
2021/09/18 10:48:37;;;;;;;9.15;3.72;;;;;;;27.95;34.42;96600.63;4978816;28;20045;-31
2021/09/18 10:51:03;;;;;;;8.77;3.67;;;;;;;27.96;34.65;96589.97;4985012;28;20038;-30
2021/09/18 10:53:29;;;;;;;9.98;3.92;;;;;;;27.96;34.60;96591.75;4983578;28;20108;-29
2021/09/18 10:55:55;;;;;;;10.52;3.67;;;;;;;27.96;34.47;96597.84;4987193;28;20169;-29
2021/09/18 10:58:21;;;;;;;9.02;3.65;;;;;;;27.97;34.52;96598.72;4979968;28;20030;-29
2021/09/18 11:00:52;;;;;;;7.25;3.50;;;;;;;27.98;34.49;96587.22;4979100;28;20037;-30
2021/09/18 11:03:32;;;;;;;7.28;3.33;;;;;;;27.98;34.44;96595.97;4983467;28;20021;-32
2021/09/18 11:05:58;;;;;;;7.32;3.15;;;;;;;28.00;34.68;96595.88;4983822;28;20096;-29
2021/09/18 11:08:25;;;;;;;8.50;3.08;;;;;;;28.00;34.61;96588.00;4970744;28;20026;-30
2021/09/18 11:10:57;;;;;;;6.50;3.78;;;;;;;28.00;34.71;96588.81;4979643;28;20116;-31
2021/09/18 11:13:31;;;;;;;8.25;3.50;;;;;;;28.02;34.66;96588.72;4982419;28;20030;-30
2021/09/18 11:15:58;;;;;;;7.85;3.42;;;;;;;28.01;34.77;96589.66;4984149;28;20038;-29
2021/09/18 11:18:36;;;;;;;11.93;3.53;;;;;;;28.02;34.71;96591.34;4982004;28;20026;-30
2021/09/18 11:21:05;;;;;;;6.80;3.38;;;;;;;28.02;34.79;96580.81;4980250;28;20118;-28
2021/09/18 11:23:32;;;;;;;9.05;3.35;;;;;;;28.03;34.68;96582.50;4981222;28;20031;-29
2021/09/18 11:25:58;;;;;;;8.75;3.28;;;;;;;28.02;34.75;96575.53;4965384;28;20388;-29
2021/09/18 11:28:29;;;;;;;10.88;3.58;;;;;;;28.03;34.81;96580.72;4973338;28;20038;-29
2021/09/18 11:30:56;;;;;;;6.90;2.97;;;;;;;28.04;34.79;96577.13;4951353;28;20497;-29